Amelia Island, Florida
Current Conditions -  °F | °C
As of 7:15 AM on Friday 24 Oct 2014 (Local Time) from KFHB Reporting Station
Clear Clear  
Wind Chill: 57°   Ceiling: Unl
Heat Index: 57°   Visibility: 10mi
Dew Point: 54°   Wind: 3mph
Humidity: 88%   Direction: 320°NW
Pressure: 30"   Gusts: NA
Location:  30.6056°N, 81.5268°W
Report Text: KFHB 241115Z AUTO 32003KT 10SM CLR 14/12 A3000 RMK AO1
Loading
Personal Weather Stations






























Interactive Weather Map New forecast layout! Learn more

10-Day Weather Forecast

Advertisements
Track Severe Weather on mobile